Time;durP1;ratioP1;P1;durP2;ratioP2;P2;SDS_P1;SDS_P2;PMS_P1;PMS_P2;Temp;Humidity;BMP_temperature;BMP_pressure;BME280_temperature;BME280_humidity;BME280_pressure;Samples;Min_cycle;Max_cycle;Signal;HPM_P1;HPM_P2
2022/01/17 00:02:18;;;;;;;6.78;1.83;;;;;;;;;;5091307;28;20051;-70
2022/01/17 00:04:45;;;;;;;6.40;1.70;;;;;;;;;;5057752;28;20047;-70
2022/01/17 00:07:11;;;;;;;7.22;2.10;;;;;;;;;;5120710;27;20031;-70
2022/01/17 00:09:37;;;;;;;6.95;1.77;;;;;;;;;;5118802;28;20092;-70
2022/01/17 00:12:03;;;;;;;6.10;1.60;;;;;;;;;;5096105;28;20973;-70
2022/01/17 00:14:34;;;;;;;7.55;1.95;;;;;;;;;;5096472;28;20667;-70
2022/01/17 00:17:10;;;;;;;6.18;1.70;;;;;;;;;;5109279;28;20096;-70
2022/01/17 00:19:41;;;;;;;4.68;1.40;;;;;;;;;;5093936;28;20109;-73
2022/01/17 00:22:07;;;;;;;5.70;1.60;;;;;;;;;;5096747;28;20405;-73
2022/01/17 00:24:33;;;;;;;6.80;1.50;;;;;;;;;;5100607;27;20027;-70
2022/01/17 00:26:59;;;;;;;6.22;1.50;;;;;;;;;;5092569;28;20529;-70
2022/01/17 00:29:26;;;;;;;6.18;1.90;;;;;;;;;;5089695;28;20044;-71
2022/01/17 00:31:52;;;;;;;8.05;1.83;;;;;;;;;;5090798;27;20047;-70
2022/01/17 00:34:18;;;;;;;6.00;1.55;;;;;;;;;;5110631;27;20769;-70
2022/01/17 00:36:43;;;;;;;5.50;1.48;;;;;;;;;;5109870;27;20039;-71
2022/01/17 00:39:10;;;;;;;6.47;1.60;;;;;;;;;;5111475;27;20043;-70
2022/01/17 00:41:35;;;;;;;5.95;1.50;;;;;;;;;;5129318;27;20043;-69
2022/01/17 00:44:03;;;;;;;5.90;1.45;;;;;;;;;;5110530;27;20491;-70
2022/01/17 00:46:29;;;;;;;5.97;1.50;;;;;;;;;;5110608;27;20047;-71
2022/01/17 00:48:55;;;;;;;6.97;1.50;;;;;;;;;;5109708;27;20051;-70
2022/01/17 00:51:21;;;;;;;10.48;2.00;;;;;;;;;;5110491;27;20555;-70
2022/01/17 00:53:48;;;;;;;7.55;1.50;;;;;;;;;;5109703;27;20047;-70
2022/01/17 00:56:14;;;;;;;7.90;1.65;;;;;;;;;;5110868;27;20043;-70
2022/01/17 00:58:40;;;;;;;7.68;2.33;;;;;;;;;;5109937;27;20053;-69
2022/01/17 01:01:06;;;;;;;6.40;1.50;;;;;;;;;;5093295;27;20046;-70
2022/01/17 01:03:33;;;;;;;6.50;1.67;;;;;;;;;;5093336;27;20500;-70
2022/01/17 01:05:58;;;;;;;5.90;1.70;;;;;;;;;;5093275;27;20043;-70
2022/01/17 01:08:25;;;;;;;6.30;1.73;;;;;;;;;;5109891;27;20043;-70
2022/01/17 01:10:51;;;;;;;4.88;1.40;;;;;;;;;;5081120;27;20048;-70
2022/01/17 01:13:21;;;;;;;5.32;1.30;;;;;;;;;;5080824;28;20568;-70
2022/01/17 01:16:08;;;;;;;5.85;1.83;;;;;;;;;;5089908;28;20035;-70
2022/01/17 01:21:43;;;;;;;6.20;1.77;;;;;;;;;;5110219;27;20093;-71
2022/01/17 01:29:44;;;;;;;;;;;;;;;;;;5110633;27;20039;-70
2022/01/17 01:32:11;;;;;;;10.23;1.90;;;;;;;;;;5142937;27;19916;-70
2022/01/17 01:34:45;;;;;;;6.40;1.45;;;;;;;;;;5109485;27;20067;-70
2022/01/17 01:37:12;;;;;;;7.75;1.73;;;;;;;;;;5108743;27;20070;-70
2022/01/17 01:39:38;;;;;;;6.13;1.52;;;;;;;;;;5109090;27;20084;-70
2022/01/17 01:42:05;;;;;;;7.63;1.60;;;;;;;;;;5106101;27;20074;-70
2022/01/17 01:44:31;;;;;;;4.95;1.25;;;;;;;;;;5089113;28;20047;-70
2022/01/17 01:46:58;;;;;;;5.53;1.27;;;;;;;;;;5071395;28;20036;-70
2022/01/17 01:49:24;;;;;;;6.90;1.70;;;;;;;;;;5072525;28;20059;-70
2022/01/17 01:51:51;;;;;;;5.60;1.60;;;;;;;;;;5072547;27;20130;-71
2022/01/17 01:54:17;;;;;;;7.88;1.73;;;;;;;;;;5110327;27;20046;-71
2022/01/17 01:56:44;;;;;;;6.68;1.80;;;;;;;;;;5109185;27;20096;-70
2022/01/17 01:59:11;;;;;;;5.78;1.35;;;;;;;;;;5092911;27;20130;-70
2022/01/17 02:01:37;;;;;;;4.78;1.33;;;;;;;;;;5092827;27;20050;-70
2022/01/17 02:04:04;;;;;;;8.05;1.60;;;;;;;;;;5108393;27;20043;-70
2022/01/17 02:06:32;;;;;;;6.93;1.70;;;;;;;;;;5109298;27;20071;-70
2022/01/17 02:08:58;;;;;;;5.55;1.50;;;;;;;;;;5108669;27;20043;-70
2022/01/17 02:11:24;;;;;;;7.03;1.42;;;;;;;;;;5109526;27;20039;-70
2022/01/17 02:13:50;;;;;;;5.80;1.50;;;;;;;;;;5108967;27;20051;-71
2022/01/17 02:16:16;;;;;;;5.50;1.40;;;;;;;;;;5109300;27;20095;-70
2022/01/17 02:18:44;;;;;;;6.57;1.80;;;;;;;;;;5107826;27;20043;-70
2022/01/17 02:23:42;;;;;;;5.63;1.30;;;;;;;;;;5108407;27;20050;-70
2022/01/17 02:26:09;;;;;;;6.15;1.50;;;;;;;;;;5092231;27;20117;-70
2022/01/17 02:28:36;;;;;;;5.82;1.50;;;;;;;;;;5091760;27;20043;-70
2022/01/17 02:31:03;;;;;;;7.35;1.42;;;;;;;;;;5109469;27;20039;-70
2022/01/17 02:33:29;;;;;;;7.57;2.00;;;;;;;;;;5077119;28;20572;-70
2022/01/17 02:35:55;;;;;;;7.55;1.85;;;;;;;;;;5088420;28;20144;-70
2022/01/17 02:38:21;;;;;;;5.57;1.17;;;;;;;;;;5102640;27;20143;-70
2022/01/17 02:40:49;;;;;;;5.18;1.30;;;;;;;;;;5109062;27;20054;-70
2022/01/17 02:43:17;;;;;;;7.40;1.52;;;;;;;;;;5108299;27;20516;-71
2022/01/17 02:48:22;;;;;;;7.22;1.60;;;;;;;;;;5108491;27;20045;-70
2022/01/17 02:50:49;;;;;;;7.03;1.67;;;;;;;;;;5108548;27;20043;-71
2022/01/17 02:53:15;;;;;;;7.05;1.50;;;;;;;;;;5126202;27;20118;-71
2022/01/17 02:55:52;;;;;;;7.95;1.80;;;;;;;;;;5109017;27;20043;-70
2022/01/17 02:58:20;;;;;;;5.63;1.45;;;;;;;;;;5091352;27;20035;-71
2022/01/17 03:00:46;;;;;;;7.03;1.60;;;;;;;;;;5127196;27;20714;-71
2022/01/17 03:03:22;;;;;;;4.90;1.30;;;;;;;;;;5108324;27;20118;-71
2022/01/17 03:05:49;;;;;;;5.10;1.58;;;;;;;;;;5109013;27;20671;-70
2022/01/17 03:08:15;;;;;;;7.72;2.08;;;;;;;;;;5107640;27;20046;-70
2022/01/17 03:10:43;;;;;;;6.80;1.50;;;;;;;;;;5091643;27;20104;-70
2022/01/17 03:13:37;;;;;;;7.32;1.88;;;;;;;;;;5126253;27;20071;-70
2022/01/17 03:16:09;;;;;;;6.03;1.48;;;;;;;;;;5105212;27;20487;-70
2022/01/17 03:18:37;;;;;;;6.93;1.40;;;;;;;;;;5108140;27;20046;-70
2022/01/17 03:21:04;;;;;;;5.57;1.58;;;;;;;;;;5108426;27;20484;-70
2022/01/17 03:23:30;;;;;;;5.63;1.35;;;;;;;;;;5076822;28;20043;-71
2022/01/17 03:25:56;;;;;;;6.25;1.48;;;;;;;;;;5087603;28;20177;-70
2022/01/17 03:28:23;;;;;;;6.03;1.52;;;;;;;;;;5118749;27;20039;-70
2022/01/17 03:30:49;;;;;;;8.95;1.90;;;;;;;;;;5106219;28;20079;-70
2022/01/17 03:33:17;;;;;;;6.88;1.20;;;;;;;;;;5105065;28;20718;-70
2022/01/17 03:35:44;;;;;;;6.80;1.60;;;;;;;;;;5125836;28;20047;-70
2022/01/17 03:38:11;;;;;;;6.35;1.60;;;;;;;;;;5107646;28;20044;-70
2022/01/17 03:40:37;;;;;;;7.50;1.50;;;;;;;;;;5108277;28;20046;-70
2022/01/17 03:43:04;;;;;;;6.15;1.55;;;;;;;;;;5107182;28;20039;-71
2022/01/17 03:45:30;;;;;;;6.90;1.45;;;;;;;;;;5108356;28;20043;-70
2022/01/17 03:47:56;;;;;;;7.70;1.75;;;;;;;;;;5107453;28;20043;-70
2022/01/17 03:50:23;;;;;;;6.82;1.70;;;;;;;;;;5108461;28;20046;-71
2022/01/17 03:52:50;;;;;;;6.82;1.60;;;;;;;;;;5090773;28;20088;-70
2022/01/17 03:55:17;;;;;;;5.93;1.50;;;;;;;;;;5108027;28;20062;-70
2022/01/17 03:57:44;;;;;;;7.28;1.98;;;;;;;;;;5107770;28;20036;-70
2022/01/17 04:00:13;;;;;;;6.22;1.70;;;;;;;;;;5107629;28;20050;-71
2022/01/17 04:02:39;;;;;;;6.28;1.63;;;;;;;;;;5107886;27;20061;-70
2022/01/17 04:05:06;;;;;;;6.18;1.67;;;;;;;;;;5112601;27;20042;-71
2022/01/17 04:07:32;;;;;;;5.75;1.67;;;;;;;;;;5111258;27;20031;-71
2022/01/17 04:09:58;;;;;;;6.55;1.67;;;;;;;;;;5112866;27;20551;-70
2022/01/17 04:12:24;;;;;;;6.32;1.75;;;;;;;;;;5095007;27;20119;-70
2022/01/17 04:14:55;;;;;;;6.03;1.42;;;;;;;;;;5112343;27;20049;-70
2022/01/17 04:17:25;;;;;;;8.15;1.77;;;;;;;;;;5111158;27;20031;-70
2022/01/17 04:19:53;;;;;;;4.78;1.30;;;;;;;;;;5111710;27;20587;-71
2022/01/17 04:22:19;;;;;;;6.40;1.52;;;;;;;;;;5110056;27;20090;-71
2022/01/17 04:24:45;;;;;;;7.10;1.63;;;;;;;;;;5094017;27;20075;-70
2022/01/17 04:27:11;;;;;;;7.20;1.58;;;;;;;;;;5106647;28;20039;-70
2022/01/17 04:29:39;;;;;;;6.22;1.52;;;;;;;;;;5091152;28;20097;-71
2022/01/17 04:32:05;;;;;;;6.85;1.70;;;;;;;;;;5093548;27;20561;-70
2022/01/17 04:34:32;;;;;;;6.82;1.60;;;;;;;;;;5111735;27;20495;-71
2022/01/17 04:36:59;;;;;;;5.43;1.30;;;;;;;;;;5110070;27;20070;-70
2022/01/17 04:39:25;;;;;;;4.97;1.20;;;;;;;;;;5111849;27;20039;-70
2022/01/17 04:41:51;;;;;;;6.93;1.50;;;;;;;;;;5093534;27;20047;-70
2022/01/17 04:47:01;;;;;;;;;;;;;;;;;;5108466;27;20051;-71
2022/01/17 04:49:27;;;;;;;7.20;1.60;;;;;;;;;;5090743;28;19927;-70
2022/01/17 04:51:54;;;;;;;4.85;1.40;;;;;;;;;;5109099;27;20043;-70
2022/01/17 04:56:50;;;;;;;8.20;1.33;;;;;;;;;;5110425;27;20055;-70
2022/01/17 04:59:16;;;;;;;6.88;1.52;;;;;;;;;;5111252;27;20051;-70
2022/01/17 05:01:42;;;;;;;6.53;1.58;;;;;;;;;;5110357;27;20039;-70
2022/01/17 05:04:08;;;;;;;8.48;1.65;;;;;;;;;;5110598;27;20039;-70
2022/01/17 05:06:34;;;;;;;7.00;1.50;;;;;;;;;;5111030;27;20047;-70
2022/01/17 05:09:02;;;;;;;10.05;1.70;;;;;;;;;;5109624;27;20126;-70
2022/01/17 05:11:30;;;;;;;8.02;1.73;;;;;;;;;;5111391;27;20466;-70
2022/01/17 05:13:56;;;;;;;5.88;1.35;;;;;;;;;;5093234;27;20043;-70
2022/01/17 05:16:29;;;;;;;8.65;1.90;;;;;;;;;;5110297;27;20062;-70
2022/01/17 05:21:41;;;;;;;5.97;1.35;;;;;;;;;;5110850;27;20061;-70
2022/01/17 05:24:07;;;;;;;7.40;1.70;;;;;;;;;;5110237;27;20130;-70
2022/01/17 05:26:33;;;;;;;7.13;1.40;;;;;;;;;;5110604;27;20697;-70
2022/01/17 05:28:59;;;;;;;6.32;1.73;;;;;;;;;;5127693;27;20042;-70
2022/01/17 05:31:25;;;;;;;6.72;1.23;;;;;;;;;;5110237;27;20451;-70
2022/01/17 05:33:51;;;;;;;7.63;1.60;;;;;;;;;;5109589;27;20194;-70
2022/01/17 05:36:17;;;;;;;9.60;1.90;;;;;;;;;;5110462;27;20497;-70
2022/01/17 05:38:43;;;;;;;7.22;1.63;;;;;;;;;;5109455;27;20051;-70
2022/01/17 05:41:09;;;;;;;7.43;1.70;;;;;;;;;;5109730;27;20043;-70
2022/01/17 05:43:35;;;;;;;5.28;1.13;;;;;;;;;;5109145;27;20546;-70
2022/01/17 05:46:01;;;;;;;5.63;1.35;;;;;;;;;;5093063;27;20078;-70
2022/01/17 05:48:27;;;;;;;6.45;1.40;;;;;;;;;;5128010;27;20074;-68
2022/01/17 05:50:53;;;;;;;5.43;1.40;;;;;;;;;;5109866;27;20039;-69
2022/01/17 05:53:19;;;;;;;7.15;1.60;;;;;;;;;;5108096;27;20046;-68
2022/01/17 05:55:45;;;;;;;6.68;1.42;;;;;;;;;;5107209;27;20122;-69
2022/01/17 05:58:12;;;;;;;6.88;1.50;;;;;;;;;;5106931;27;20043;-68
2022/01/17 06:00:38;;;;;;;7.05;1.70;;;;;;;;;;5108160;27;20099;-68
2022/01/17 06:03:04;;;;;;;8.85;1.70;;;;;;;;;;5107238;27;20050;-68
2022/01/17 06:05:30;;;;;;;8.27;1.42;;;;;;;;;;5126187;27;20039;-68
2022/01/17 06:07:56;;;;;;;4.55;1.17;;;;;;;;;;5125773;27;20495;-69
2022/01/17 06:10:22;;;;;;;6.93;1.77;;;;;;;;;;5108231;27;20035;-68
2022/01/17 06:12:48;;;;;;;5.72;1.50;;;;;;;;;;5125373;27;20031;-69
2022/01/17 06:15:18;;;;;;;5.30;1.20;;;;;;;;;;5108312;27;20038;-69
2022/01/17 06:17:44;;;;;;;7.40;1.83;;;;;;;;;;5107347;27;20043;-68
2022/01/17 06:20:10;;;;;;;6.90;1.67;;;;;;;;;;5107847;27;20054;-69
2022/01/17 06:22:36;;;;;;;6.70;1.50;;;;;;;;;;5106020;27;20043;-69
2022/01/17 06:25:02;;;;;;;5.28;1.70;;;;;;;;;;5108213;27;20067;-68
2022/01/17 06:27:28;;;;;;;8.55;1.92;;;;;;;;;;5105969;27;20031;-68
2022/01/17 06:29:55;;;;;;;9.13;1.67;;;;;;;;;;5107322;27;20111;-68
2022/01/17 06:32:21;;;;;;;8.23;1.83;;;;;;;;;;5105952;27;20031;-68
2022/01/17 06:34:47;;;;;;;7.25;1.98;;;;;;;;;;5090464;27;20118;-68
2022/01/17 06:37:13;;;;;;;9.57;1.60;;;;;;;;;;5106110;27;20043;-68
2022/01/17 06:39:39;;;;;;;6.78;1.73;;;;;;;;;;5125647;27;20035;-68
2022/01/17 06:42:05;;;;;;;6.63;1.65;;;;;;;;;;5106231;27;20066;-68
2022/01/17 06:44:31;;;;;;;6.82;2.15;;;;;;;;;;5107202;27;20126;-69
2022/01/17 06:46:57;;;;;;;8.48;1.75;;;;;;;;;;5105358;27;20061;-68
2022/01/17 06:49:23;;;;;;;8.10;1.77;;;;;;;;;;5107696;27;20625;-68
2022/01/17 06:51:49;;;;;;;5.40;1.30;;;;;;;;;;5105462;27;20084;-68
2022/01/17 06:54:15;;;;;;;8.23;2.03;;;;;;;;;;5082966;27;21044;-68
2022/01/17 06:56:44;;;;;;;5.70;1.63;;;;;;;;;;5108598;27;20084;-68
2022/01/17 06:59:12;;;;;;;6.15;1.30;;;;;;;;;;5091517;28;20067;-69
2022/01/17 07:01:39;;;;;;;6.57;1.60;;;;;;;;;;5091166;27;20480;-68
2022/01/17 07:04:05;;;;;;;7.68;1.55;;;;;;;;;;5097219;27;20059;-68
2022/01/17 07:06:31;;;;;;;6.38;1.58;;;;;;;;;;5089829;27;20067;-68
2022/01/17 07:08:57;;;;;;;8.73;1.75;;;;;;;;;;5082898;27;20109;-68
2022/01/17 07:11:23;;;;;;;7.70;1.80;;;;;;;;;;5081436;27;20606;-68
2022/01/17 07:13:49;;;;;;;8.20;1.90;;;;;;;;;;5080534;27;20099;-68
2022/01/17 07:16:16;;;;;;;8.40;1.80;;;;;;;;;;5106582;27;20043;-68
2022/01/17 07:18:42;;;;;;;7.05;1.70;;;;;;;;;;5106393;27;20067;-68
2022/01/17 07:21:08;;;;;;;7.53;1.90;;;;;;;;;;5105149;27;20055;-69
2022/01/17 07:23:34;;;;;;;8.38;2.33;;;;;;;;;;5105367;28;20050;-68
2022/01/17 07:26:00;;;;;;;9.85;2.38;;;;;;;;;;5106480;27;20511;-68
2022/01/17 07:28:27;;;;;;;5.82;1.63;;;;;;;;;;5105479;27;20082;-68
2022/01/17 07:30:53;;;;;;;8.38;2.03;;;;;;;;;;5106628;28;20066;-68
2022/01/17 07:33:21;;;;;;;10.43;2.20;;;;;;;;;;5088884;28;20075;-69
2022/01/17 07:35:48;;;;;;;10.35;2.00;;;;;;;;;;5106521;28;20473;-69
2022/01/17 07:38:15;;;;;;;9.13;2.10;;;;;;;;;;5089184;28;20177;-69
2022/01/17 07:40:43;;;;;;;10.23;2.40;;;;;;;;;;5107411;28;20538;-68
2022/01/17 07:43:09;;;;;;;8.30;2.42;;;;;;;;;;5106043;28;20666;-68
2022/01/17 07:45:36;;;;;;;11.07;2.10;;;;;;;;;;5085537;28;20042;-69
2022/01/17 07:50:28;;;;;;;8.00;2.33;;;;;;;;;;5094456;28;20043;-69
2022/01/17 07:52:54;;;;;;;9.57;1.90;;;;;;;;;;5093794;28;20043;-69
2022/01/17 07:55:21;;;;;;;10.90;2.58;;;;;;;;;;5068632;28;20123;-68
2022/01/17 07:57:47;;;;;;;11.18;2.42;;;;;;;;;;5077774;28;20087;-69
2022/01/17 08:00:16;;;;;;;8.45;2.13;;;;;;;;;;5124857;28;20039;-69
2022/01/17 08:02:42;;;;;;;10.82;2.67;;;;;;;;;;5093867;28;20051;-69
2022/01/17 08:05:10;;;;;;;9.77;2.22;;;;;;;;;;5106645;28;20120;-69
2022/01/17 08:07:36;;;;;;;10.05;2.10;;;;;;;;;;5088258;28;20062;-69
2022/01/17 08:10:02;;;;;;;7.65;2.20;;;;;;;;;;5106612;28;20524;-69
2022/01/17 08:12:28;;;;;;;8.75;2.13;;;;;;;;;;5088616;28;20062;-68
2022/01/17 08:14:57;;;;;;;34.13;3.95;;;;;;;;;;5124621;28;20066;-67
2022/01/17 08:17:23;;;;;;;19.40;3.75;;;;;;;;;;5104526;28;20091;-68
2022/01/17 08:19:50;;;;;;;14.05;2.38;;;;;;;;;;5105697;28;20059;-67
2022/01/17 08:22:16;;;;;;;17.83;2.90;;;;;;;;;;5104411;28;20533;-67
2022/01/17 08:24:42;;;;;;;14.57;2.85;;;;;;;;;;5079622;28;20076;-67
2022/01/17 08:27:08;;;;;;;15.45;2.70;;;;;;;;;;5115347;27;20519;-67
2022/01/17 08:29:34;;;;;;;12.05;2.58;;;;;;;;;;5092001;28;20032;-67
2022/01/17 08:32:05;;;;;;;17.50;2.75;;;;;;;;;;5093216;28;20589;-67
2022/01/17 08:34:30;;;;;;;12.77;2.25;;;;;;;;;;5098745;27;20096;-67
2022/01/17 08:36:57;;;;;;;17.08;2.38;;;;;;;;;;5103841;28;20524;-68
2022/01/17 08:39:24;;;;;;;12.15;2.50;;;;;;;;;;5099958;28;20039;-66
2022/01/17 08:41:50;;;;;;;9.30;2.08;;;;;;;;;;5084462;28;20044;-67
2022/01/17 08:44:19;;;;;;;8.15;2.08;;;;;;;;;;5069259;28;20631;-67
2022/01/17 08:46:45;;;;;;;10.85;2.28;;;;;;;;;;5098801;28;20043;-66
2022/01/17 08:49:11;;;;;;;9.57;2.63;;;;;;;;;;5086837;28;20035;-67
2022/01/17 08:51:37;;;;;;;10.07;2.30;;;;;;;;;;5105640;27;20070;-67
2022/01/17 08:54:04;;;;;;;12.68;2.05;;;;;;;;;;5086048;27;20047;-67
2022/01/17 08:56:30;;;;;;;8.10;2.22;;;;;;;;;;5087222;27;20118;-67
2022/01/17 08:58:57;;;;;;;13.52;2.55;;;;;;;;;;5107842;27;20039;-67
2022/01/17 09:01:23;;;;;;;11.55;2.78;;;;;;;;;;5092858;27;20038;-67
2022/01/17 09:03:50;;;;;;;8.35;1.98;;;;;;;;;;5095836;27;20035;-67
2022/01/17 09:06:16;;;;;;;9.10;2.55;;;;;;;;;;5083366;27;20161;-67
2022/01/17 09:08:42;;;;;;;8.57;2.75;;;;;;;;;;5077221;28;20044;-67
2022/01/17 09:11:09;;;;;;;8.93;2.20;;;;;;;;;;5093972;27;20063;-66
2022/01/17 09:13:35;;;;;;;9.20;2.40;;;;;;;;;;5093114;28;20060;-67
2022/01/17 09:16:01;;;;;;;8.52;2.00;;;;;;;;;;5088344;28;20396;-67
2022/01/17 09:18:28;;;;;;;10.38;2.45;;;;;;;;;;5101153;28;20042;-67
2022/01/17 09:20:54;;;;;;;12.65;2.53;;;;;;;;;;5106219;28;20050;-67
2022/01/17 09:23:20;;;;;;;8.48;2.13;;;;;;;;;;5085056;27;20042;-67
2022/01/17 09:25:47;;;;;;;8.05;2.20;;;;;;;;;;5097589;27;20050;-67
2022/01/17 09:28:13;;;;;;;7.88;2.20;;;;;;;;;;5071689;27;20144;-67
2022/01/17 09:30:39;;;;;;;9.18;2.25;;;;;;;;;;5096966;27;20039;-66
2022/01/17 09:33:06;;;;;;;11.50;2.40;;;;;;;;;;5077920;28;20044;-66
2022/01/17 09:35:32;;;;;;;13.10;2.63;;;;;;;;;;5087271;28;20103;-66
2022/01/17 09:37:59;;;;;;;11.70;2.65;;;;;;;;;;5098545;27;20078;-67
2022/01/17 09:40:25;;;;;;;8.82;2.20;;;;;;;;;;5126911;27;20139;-67
2022/01/17 09:42:51;;;;;;;9.68;2.42;;;;;;;;;;5125343;27;20468;-67
2022/01/17 09:45:18;;;;;;;10.00;2.42;;;;;;;;;;5108595;27;20047;-67
2022/01/17 09:47:45;;;;;;;14.02;2.60;;;;;;;;;;5107508;27;20043;-66
2022/01/17 09:50:18;;;;;;;10.05;2.67;;;;;;;;;;5090582;27;20144;-66
2022/01/17 09:52:46;;;;;;;11.27;3.30;;;;;;;;;;5103079;27;20043;-66
2022/01/17 09:55:13;;;;;;;9.73;2.53;;;;;;;;;;5108225;27;20043;-66
2022/01/17 09:57:42;;;;;;;10.45;2.60;;;;;;;;;;5091083;27;20081;-66
2022/01/17 10:00:09;;;;;;;10.30;2.92;;;;;;;;;;5108742;27;20650;-67
2022/01/17 10:02:35;;;;;;;11.98;2.58;;;;;;;;;;5106943;27;20031;-67
2022/01/17 10:05:06;;;;;;;8.52;2.47;;;;;;;;;;5108570;27;20047;-67
2022/01/17 10:07:51;;;;;;;11.48;2.90;;;;;;;;;;5106443;27;20038;-67
2022/01/17 10:10:17;;;;;;;9.38;2.20;;;;;;;;;;5126638;27;20062;-67
2022/01/17 10:12:43;;;;;;;8.40;2.03;;;;;;;;;;5106302;27;20031;-67
2022/01/17 10:15:15;;;;;;;10.30;2.38;;;;;;;;;;5107591;27;20047;-67
2022/01/17 10:17:48;;;;;;;10.30;2.35;;;;;;;;;;5107084;27;20404;-67
2022/01/17 10:20:17;;;;;;;7.93;2.50;;;;;;;;;;5106997;27;20055;-67
2022/01/17 10:23:05;;;;;;;10.15;2.55;;;;;;;;;;5089520;27;20296;-67
2022/01/17 10:34:53;;;;;;;14.82;3.38;;;;;;;;;;5061411;28;20686;-67
2022/01/17 10:36:55;;;;;;;10.52;2.55;;;;;;;;;;5105932;27;20039;-66
2022/01/17 10:39:21;;;;;;;10.10;2.70;;;;;;;;;;5107285;27;20058;-67
2022/01/17 10:41:48;;;;;;;9.52;2.53;;;;;;;;;;5105954;27;20042;-67
2022/01/17 10:44:33;;;;;;;11.82;2.78;;;;;;;;;;5106679;27;20054;-66
2022/01/17 10:47:17;;;;;;;10.15;2.55;;;;;;;;;;5106928;27;20103;-67
2022/01/17 10:49:47;;;;;;;10.07;2.75;;;;;;;;;;5107603;27;20051;-67
2022/01/17 10:52:26;;;;;;;11.63;3.03;;;;;;;;;;5089446;27;20110;-67
2022/01/17 10:54:55;;;;;;;10.30;2.47;;;;;;;;;;5107452;27;20046;-67
2022/01/17 10:57:22;;;;;;;9.68;2.40;;;;;;;;;;5105705;27;20047;-67
2022/01/17 10:59:51;;;;;;;12.18;3.50;;;;;;;;;;5093153;27;20035;-67
2022/01/17 11:02:17;;;;;;;11.57;2.40;;;;;;;;;;5105301;27;20050;-68
2022/01/17 11:04:43;;;;;;;11.20;2.50;;;;;;;;;;5099750;28;20050;-68
2022/01/17 11:07:10;;;;;;;10.52;2.53;;;;;;;;;;5106813;28;20039;-67
2022/01/17 11:09:43;;;;;;;11.30;2.95;;;;;;;;;;5125412;27;20096;-68
2022/01/17 11:12:09;;;;;;;9.95;2.38;;;;;;;;;;5105972;28;20523;-68
2022/01/17 11:14:39;;;;;;;10.48;3.22;;;;;;;;;;5106750;27;20420;-68
2022/01/17 11:17:36;;;;;;;14.68;2.92;;;;;;;;;;5098467;27;20051;-68
2022/01/17 11:20:07;;;;;;;11.00;2.60;;;;;;;;;;5089140;27;20055;-68
2022/01/17 11:22:38;;;;;;;9.77;2.63;;;;;;;;;;5088280;27;20042;-68
2022/01/17 11:25:11;;;;;;;10.32;3.08;;;;;;;;;;5106465;27;20040;-68
2022/01/17 11:27:38;;;;;;;11.23;3.10;;;;;;;;;;5099730;28;20426;-68
2022/01/17 11:30:05;;;;;;;9.15;2.80;;;;;;;;;;5103133;28;20129;-68
2022/01/17 11:32:31;;;;;;;9.95;2.60;;;;;;;;;;5134577;27;20031;-68
2022/01/17 11:34:58;;;;;;;13.43;3.13;;;;;;;;;;5099449;28;20036;-68
2022/01/17 11:37:25;;;;;;;11.32;3.03;;;;;;;;;;5100631;28;20159;-68
2022/01/17 11:39:56;;;;;;;11.40;3.10;;;;;;;;;;5117328;28;20064;-68
2022/01/17 11:42:34;;;;;;;11.02;2.67;;;;;;;;;;5106139;28;20879;-68
2022/01/17 11:45:01;;;;;;;8.88;2.47;;;;;;;;;;5101131;28;20586;-68
2022/01/17 11:47:47;;;;;;;12.05;2.95;;;;;;;;;;5100879;28;20111;-68
2022/01/17 11:50:43;;;;;;;9.82;2.83;;;;;;;;;;5103693;28;20031;-68
2022/01/17 11:53:12;;;;;;;10.43;2.85;;;;;;;;;;5087957;28;20063;-68
2022/01/17 11:55:44;;;;;;;14.43;3.55;;;;;;;;;;5081258;28;20087;-68
2022/01/17 11:58:16;;;;;;;8.75;2.80;;;;;;;;;;5071431;28;20043;-68
2022/01/17 12:00:43;;;;;;;10.88;2.60;;;;;;;;;;5090687;27;20176;-68
2022/01/17 12:03:19;;;;;;;12.40;2.80;;;;;;;;;;5130080;27;20046;-68
2022/01/17 12:05:46;;;;;;;12.27;3.78;;;;;;;;;;5086015;28;20576;-68
2022/01/17 12:08:14;;;;;;;13.27;3.13;;;;;;;;;;5098097;28;20045;-68
2022/01/17 12:10:51;;;;;;;9.07;2.53;;;;;;;;;;5106359;28;20039;-68
2022/01/17 12:13:22;;;;;;;10.85;3.42;;;;;;;;;;5123957;28;20103;-68
2022/01/17 12:15:59;;;;;;;10.00;2.72;;;;;;;;;;5105891;28;20835;-68
2022/01/17 12:18:29;;;;;;;9.23;2.63;;;;;;;;;;5088255;28;20115;-68
2022/01/17 12:20:55;;;;;;;11.13;2.40;;;;;;;;;;5104894;28;20138;-68
2022/01/17 12:23:25;;;;;;;10.15;3.20;;;;;;;;;;5104800;27;20122;-68
2022/01/17 12:25:52;;;;;;;11.27;3.20;;;;;;;;;;5110097;27;20045;-68
2022/01/17 12:28:17;;;;;;;11.20;3.05;;;;;;;;;;5092289;27;20050;-68
2022/01/17 12:30:50;;;;;;;9.73;2.70;;;;;;;;;;5109679;27;20424;-67
2022/01/17 12:33:28;;;;;;;10.55;2.55;;;;;;;;;;5091944;27;20618;-68
2022/01/17 12:35:55;;;;;;;9.30;2.83;;;;;;;;;;5109672;27;20073;-68
2022/01/17 12:38:31;;;;;;;11.63;2.80;;;;;;;;;;5107418;27;20039;-68
2022/01/17 12:40:57;;;;;;;10.18;2.53;;;;;;;;;;5109819;27;20051;-68
2022/01/17 12:43:30;;;;;;;10.75;2.60;;;;;;;;;;5108449;27;20036;-69
2022/01/17 12:45:59;;;;;;;9.73;2.63;;;;;;;;;;5108929;27;20116;-68
2022/01/17 12:48:26;;;;;;;10.02;2.83;;;;;;;;;;5108375;27;20043;-68
2022/01/17 12:50:53;;;;;;;11.38;2.97;;;;;;;;;;5088687;27;20051;-68
2022/01/17 12:53:20;;;;;;;9.70;2.65;;;;;;;;;;5074862;27;20047;-68
2022/01/17 12:55:53;;;;;;;12.45;2.80;;;;;;;;;;5072043;28;20040;-68
2022/01/17 12:58:21;;;;;;;13.85;2.90;;;;;;;;;;5119966;27;20716;-68
2022/01/17 13:00:52;;;;;;;9.55;2.60;;;;;;;;;;5127580;27;20400;-68
2022/01/17 13:03:18;;;;;;;11.18;3.20;;;;;;;;;;5108266;27;20047;-68
2022/01/17 13:05:45;;;;;;;9.93;2.75;;;;;;;;;;5109102;27;20039;-68
2022/01/17 13:08:12;;;;;;;10.73;2.90;;;;;;;;;;5126627;27;20039;-67
2022/01/17 13:10:38;;;;;;;11.75;3.20;;;;;;;;;;5109072;27;20415;-68
2022/01/17 13:13:05;;;;;;;8.75;2.92;;;;;;;;;;5091596;27;20039;-67
2022/01/17 13:15:31;;;;;;;9.77;2.50;;;;;;;;;;5108116;27;20102;-68
2022/01/17 13:17:58;;;;;;;9.45;2.75;;;;;;;;;;5107608;27;20528;-68
2022/01/17 13:20:25;;;;;;;11.88;3.17;;;;;;;;;;5091661;27;20062;-68
2022/01/17 13:23:02;;;;;;;12.02;2.88;;;;;;;;;;5108226;27;20115;-68
2022/01/17 13:25:28;;;;;;;9.85;2.72;;;;;;;;;;5109161;27;20035;-68
2022/01/17 13:27:59;;;;;;;14.00;2.72;;;;;;;;;;5107688;27;20046;-69
2022/01/17 13:30:26;;;;;;;10.70;2.95;;;;;;;;;;5108646;27;20095;-69
2022/01/17 13:32:52;;;;;;;11.15;3.22;;;;;;;;;;5090698;27;20046;-68
2022/01/17 13:35:22;;;;;;;11.20;2.55;;;;;;;;;;5126188;27;20606;-68
2022/01/17 13:37:52;;;;;;;11.05;2.60;;;;;;;;;;5090894;27;20035;-68
2022/01/17 13:40:23;;;;;;;10.45;2.80;;;;;;;;;;5091826;27;20095;-68
2022/01/17 13:42:49;;;;;;;10.20;2.78;;;;;;;;;;5099794;27;20108;-68
2022/01/17 13:45:15;;;;;;;9.38;2.63;;;;;;;;;;5088411;28;20716;-68
2022/01/17 13:47:44;;;;;;;11.73;2.97;;;;;;;;;;5090371;27;20047;-68
2022/01/17 13:50:11;;;;;;;11.13;2.50;;;;;;;;;;5088795;27;20043;-68
2022/01/17 13:52:37;;;;;;;14.23;3.80;;;;;;;;;;5090521;27;20118;-68
2022/01/17 13:55:23;;;;;;;10.43;2.72;;;;;;;;;;5108866;27;20395;-68
2022/01/17 13:57:56;;;;;;;11.80;2.65;;;;;;;;;;5107354;27;20040;-68
2022/01/17 14:00:22;;;;;;;12.02;3.10;;;;;;;;;;5126721;27;20067;-69
2022/01/17 14:02:48;;;;;;;12.05;2.80;;;;;;;;;;5106639;27;20054;-68
2022/01/17 14:05:15;;;;;;;13.05;3.45;;;;;;;;;;5107442;27;20034;-68
2022/01/17 14:07:45;;;;;;;9.48;2.90;;;;;;;;;;5106126;27;20074;-68
2022/01/17 14:10:18;;;;;;;11.15;2.80;;;;;;;;;;5108224;27;20039;-68
2022/01/17 14:12:44;;;;;;;11.07;3.28;;;;;;;;;;5107380;27;20039;-68
2022/01/17 14:15:10;;;;;;;10.65;2.85;;;;;;;;;;5108178;27;20099;-69
2022/01/17 14:17:36;;;;;;;11.63;3.10;;;;;;;;;;5101129;27;20059;-68
2022/01/17 14:20:09;;;;;;;10.45;3.00;;;;;;;;;;5090759;27;20150;-69
2022/01/17 14:22:51;;;;;;;10.87;2.80;;;;;;;;;;5106285;27;20507;-69
2022/01/17 14:25:21;;;;;;;11.88;3.08;;;;;;;;;;5107681;27;20279;-68
2022/01/17 14:28:19;;;;;;;12.43;2.92;;;;;;;;;;5099775;28;20031;-68
2022/01/17 14:30:47;;;;;;;13.40;3.47;;;;;;;;;;5093528;27;20035;-69
2022/01/17 14:33:24;;;;;;;10.35;2.75;;;;;;;;;;5104944;27;20656;-68
2022/01/17 14:36:08;;;;;;;9.93;2.90;;;;;;;;;;5095952;27;20122;-68
2022/01/17 14:38:52;;;;;;;12.73;2.88;;;;;;;;;;5097672;27;20673;-69
2022/01/17 14:41:38;;;;;;;12.52;3.05;;;;;;;;;;5092405;27;20031;-66
2022/01/17 14:44:06;;;;;;;12.52;3.20;;;;;;;;;;5093777;27;20618;-66
2022/01/17 14:46:32;;;;;;;13.57;3.22;;;;;;;;;;5086422;27;20046;-66
2022/01/17 14:48:58;;;;;;;11.18;3.20;;;;;;;;;;5111628;27;20032;-66
2022/01/17 14:51:32;;;;;;;10.95;3.10;;;;;;;;;;5101897;27;20072;-67
2022/01/17 14:54:09;;;;;;;12.77;3.17;;;;;;;;;;5098427;27;20516;-68
2022/01/17 15:02:03;;;;;;;10.10;3.00;;;;;;;;;;5091985;27;20052;-68
2022/01/17 15:04:34;;;;;;;;;;;;;;;;;;5074889;28;20776;-68
2022/01/17 15:07:00;;;;;;;11.18;3.20;;;;;;;;;;5099504;27;19916;-68
2022/01/17 15:09:26;;;;;;;12.73;3.72;;;;;;;;;;5087055;28;20044;-68
2022/01/17 15:11:51;;;;;;;13.20;3.00;;;;;;;;;;5085875;28;20449;-68
2022/01/17 15:14:18;;;;;;;11.05;2.75;;;;;;;;;;5091777;28;20077;-68
2022/01/17 15:16:43;;;;;;;10.25;2.78;;;;;;;;;;5068419;28;20069;-68
2022/01/17 15:19:09;;;;;;;11.50;3.65;;;;;;;;;;5098226;28;20698;-68
2022/01/17 15:21:35;;;;;;;9.27;2.33;;;;;;;;;;5087404;27;20047;-68
2022/01/17 15:24:02;;;;;;;12.07;3.00;;;;;;;;;;5105470;27;20053;-68